createdAt,value
2023-11-06T00:00:55.368Z,2.30
2023-11-06T00:03:57.889Z,1.23
2023-11-06T00:07:00.309Z,1.67
2023-11-06T00:10:02.737Z,2.10
2023-11-06T00:13:05.409Z,1.60
2023-11-06T00:16:15.848Z,1.83
2023-11-06T00:19:25.907Z,2.97
2023-11-06T00:22:28.340Z,1.70
2023-11-06T00:25:31.316Z,4.03
2023-11-06T00:28:34.071Z,2.72
2023-11-06T00:31:42.653Z,1.63
2023-11-06T00:34:45.490Z,7.90
2023-11-06T00:37:48.513Z,1.50
2023-11-06T00:40:51.359Z,2.55
2023-11-06T00:43:53.857Z,3.77
2023-11-06T00:46:56.423Z,4.55
2023-11-06T00:49:58.871Z,5.38
2023-11-06T00:53:01.418Z,2.97
2023-11-06T00:56:04.368Z,6.95
2023-11-06T00:59:07.069Z,2.63
2023-11-06T01:02:09.642Z,4.22
2023-11-06T01:05:13.300Z,3.53
2023-11-06T01:08:16.117Z,2.33
2023-11-06T01:11:19.377Z,4.20
2023-11-06T01:14:22.196Z,3.87
2023-11-06T01:17:26.693Z,5.55
2023-11-06T01:20:29.192Z,3.42
2023-11-06T01:23:31.895Z,2.88
2023-11-06T01:26:34.354Z,3.45
2023-11-06T01:29:37.646Z,2.03
2023-11-06T01:32:41.292Z,2.60
2023-11-06T01:35:43.928Z,1.87
2023-11-06T01:38:46.344Z,7.82
2023-11-06T01:41:48.858Z,3.88
2023-11-06T01:44:51.745Z,1.03
2023-11-06T01:47:55.389Z,1.00
2023-11-06T01:50:58.806Z,2.85
2023-11-06T01:54:01.789Z,1.02
2023-11-06T01:57:05.003Z,2.15
2023-11-06T02:00:11.882Z,1.75
2023-11-06T02:03:18.341Z,1.75
2023-11-06T02:06:20.994Z,5.10
2023-11-06T02:09:23.611Z,2.92
2023-11-06T02:12:26.529Z,4.07
2023-11-06T02:15:29.292Z,3.03
2023-11-06T02:18:31.779Z,3.53
2023-11-06T02:21:41.226Z,1.50
2023-11-06T02:24:50.248Z,2.30
2023-11-06T02:27:53.084Z,2.92
2023-11-06T02:30:55.535Z,4.03
2023-11-06T02:33:58.045Z,8.35
2023-11-06T02:37:00.514Z,1.77
2023-11-06T02:40:03.674Z,4.88
2023-11-06T02:43:06.486Z,2.78
2023-11-06T02:46:08.943Z,3.03
2023-11-06T02:49:12.152Z,4.47
2023-11-06T02:52:15.004Z,6.03
2023-11-06T02:55:17.505Z,4.28
2023-11-06T02:58:20.223Z,9.52
2023-11-06T03:01:23.526Z,4.68
2023-11-06T03:04:26.156Z,4.18
2023-11-06T03:07:28.636Z,4.60
2023-11-06T03:10:31.077Z,2.05
2023-11-06T03:13:34.071Z,4.43
2023-11-06T03:16:39.516Z,3.20
2023-11-06T03:19:42.587Z,2.67
2023-11-06T03:22:45.090Z,2.15
2023-11-06T03:25:47.602Z,3.80
2023-11-06T03:28:50.112Z,2.72
2023-11-06T03:31:52.999Z,2.53
2023-11-06T03:34:57.400Z,5.85
2023-11-06T03:37:59.897Z,2.67
2023-11-06T03:41:02.318Z,3.00
2023-11-06T03:44:05.121Z,7.60
2023-11-06T03:47:07.763Z,6.33
2023-11-06T03:50:10.390Z,4.85
2023-11-06T03:53:16.217Z,4.20
2023-11-06T03:56:18.880Z,1.48
2023-11-06T03:59:21.408Z,2.00
2023-11-06T04:02:23.856Z,2.10
2023-11-06T04:05:26.995Z,2.03
2023-11-06T04:08:29.755Z,1.33
2023-11-06T04:11:32.205Z,7.07
2023-11-06T04:14:34.927Z,4.50
2023-11-06T04:17:39.163Z,5.43
2023-11-06T04:20:44.164Z,3.63
2023-11-06T04:23:47.025Z,4.15
2023-11-06T04:26:49.375Z,2.67
2023-11-06T04:29:52.525Z,1.90
2023-11-06T04:32:55.060Z,1.17
2023-11-06T04:35:57.915Z,1.20
2023-11-06T04:39:00.335Z,5.80
2023-11-06T04:42:02.668Z,3.72
2023-11-06T04:45:05.777Z,0.68
2023-11-06T04:48:08.218Z,3.03
2023-11-06T04:51:10.631Z,1.27
2023-11-06T04:54:13.044Z,1.15
2023-11-06T04:57:15.739Z,1.60
2023-11-06T05:00:18.603Z,3.20
2023-11-06T05:03:21.084Z,1.85
2023-11-06T05:06:23.506Z,0.68
2023-11-06T05:09:25.972Z,1.90
2023-11-06T05:12:28.385Z,2.05
2023-11-06T05:15:30.829Z,1.88
2023-11-06T05:18:33.374Z,1.33
2023-11-06T05:21:37.005Z,1.30
2023-11-06T05:24:42.719Z,1.27
2023-11-06T05:27:45.148Z,2.45
2023-11-06T05:30:47.618Z,2.22
2023-11-06T05:33:52.634Z,2.50
2023-11-06T05:36:55.138Z,1.40
2023-11-06T05:39:57.592Z,0.50
2023-11-06T05:43:00.028Z,6.78
2023-11-06T05:46:02.502Z,1.98
2023-11-06T05:49:04.930Z,3.73
2023-11-06T05:52:07.558Z,1.63
2023-11-06T05:55:10.291Z,4.25
2023-11-06T05:58:13.005Z,3.38
2023-11-06T06:01:15.431Z,7.30
2023-11-06T06:04:18.167Z,4.00
2023-11-06T06:07:20.851Z,3.38
2023-11-06T06:10:23.283Z,1.30
2023-11-06T06:13:26.382Z,4.53
2023-11-06T06:16:28.856Z,0.63
2023-11-06T06:19:32.605Z,3.40
2023-11-06T06:22:35.133Z,0.32
2023-11-06T06:25:37.707Z,0.93
2023-11-06T06:28:40.176Z,0.40
2023-11-06T06:31:42.567Z,0.95
2023-11-06T06:34:45.046Z,2.25
2023-11-06T06:37:47.620Z,0.20
2023-11-06T06:40:50.808Z,2.13
2023-11-06T06:43:53.426Z,0.95
2023-11-06T06:46:58.816Z,0.50
2023-11-06T06:50:01.525Z,1.07
2023-11-06T06:53:04.090Z,3.00
2023-11-06T06:56:06.904Z,0.30
2023-11-06T06:59:09.403Z,0.70
2023-11-06T07:02:11.897Z,2.20
2023-11-06T07:05:14.696Z,3.38
2023-11-06T07:08:17.655Z,2.90
2023-11-06T07:11:20.364Z,0.97
2023-11-06T07:14:25.251Z,0.60
2023-11-06T07:17:27.980Z,1.05
2023-11-06T07:20:30.722Z,1.73
2023-11-06T07:23:33.728Z,1.20
2023-11-06T07:26:37.259Z,1.05
2023-11-06T07:29:39.782Z,0.80
2023-11-06T07:32:42.533Z,1.33
2023-11-06T07:35:45.068Z,1.35
2023-11-06T07:38:47.615Z,0.80
2023-11-06T07:41:50.131Z,0.80
2023-11-06T07:44:56.175Z,2.58
2023-11-06T07:48:04.439Z,2.80
2023-11-06T07:51:07.009Z,1.40
2023-11-06T07:54:09.449Z,0.52
2023-11-06T07:57:12.752Z,0.43
2023-11-06T08:00:15.475Z,0.88
2023-11-06T08:03:18.024Z,0.88
2023-11-06T08:06:20.659Z,1.15
2023-11-06T08:09:23.301Z,1.02
2023-11-06T08:12:25.652Z,1.47
2023-11-06T08:15:28.106Z,0.75
2023-11-06T08:18:31.700Z,1.27
2023-11-06T08:21:34.579Z,0.63
2023-11-06T08:24:41.092Z,0.40
2023-11-06T08:27:45.381Z,0.63
2023-11-06T08:30:48.530Z,0.60
2023-11-06T08:33:51.573Z,1.00
2023-11-06T08:36:54.131Z,2.47
2023-11-06T08:39:56.598Z,2.05
2023-11-06T08:42:59.015Z,2.10
2023-11-06T08:46:06.144Z,0.55
2023-11-06T08:49:10.174Z,0.45
2023-11-06T08:52:12.885Z,2.67
2023-11-06T08:55:16.997Z,0.57
2023-11-06T08:58:20.301Z,3.50
2023-11-06T09:01:26.102Z,2.00
2023-11-06T09:04:29.309Z,1.17
2023-11-06T09:07:34.735Z,0.60
2023-11-06T09:10:38.696Z,0.30
2023-11-06T09:13:41.091Z,1.10
2023-11-06T09:16:43.480Z,2.08
2023-11-06T09:19:47.315Z,1.92
2023-11-06T09:22:50.071Z,1.23
2023-11-06T09:25:52.516Z,1.00
2023-11-06T09:28:55.369Z,0.85
2023-11-06T09:31:57.922Z,0.38
2023-11-06T09:35:05.104Z,0.40
2023-11-06T09:38:09.304Z,1.20
2023-11-06T09:41:15.072Z,0.60
2023-11-06T09:44:19.617Z,0.37
2023-11-06T09:47:22.552Z,0.82
2023-11-06T09:50:25.120Z,1.23
2023-11-06T09:53:27.826Z,1.53
2023-11-06T09:56:30.447Z,0.77
2023-11-06T09:59:33.427Z,0.40
2023-11-06T10:02:35.985Z,1.25
2023-11-06T10:05:38.434Z,0.40
2023-11-06T10:08:41.589Z,0.60
2023-11-06T10:11:44.528Z,0.95
2023-11-06T10:14:48.555Z,0.37
2023-11-06T10:17:51.309Z,1.17
2023-11-06T10:20:56.694Z,0.35
2023-11-06T10:24:02.677Z,0.20
2023-11-06T10:27:25.930Z,0.30
2023-11-06T10:30:31.684Z,0.30
2023-11-06T10:33:34.955Z,0.15
2023-11-06T10:36:37.584Z,0.13
2023-11-06T10:39:53.316Z,1.05
2023-11-06T10:42:57.506Z,3.75
2023-11-06T10:46:08.243Z,0.50
2023-11-06T10:49:34.565Z,0.55
2023-11-06T10:52:42.216Z,0.15
2023-11-06T10:55:46.173Z,0.43
2023-11-06T10:58:50.815Z,1.65
2023-11-06T11:01:59.836Z,2.58
2023-11-06T11:05:04.712Z,0.20
2023-11-06T11:08:07.460Z,0.10
2023-11-06T11:11:11.409Z,0.40
2023-11-06T11:14:15.468Z,0.85
2023-11-06T11:17:18.460Z,2.27
2023-11-06T11:20:21.110Z,0.63
2023-11-06T11:23:38.098Z,0.93
2023-11-06T11:27:11.662Z,0.50
2023-11-06T11:30:14.605Z,1.13
2023-11-06T11:33:55.078Z,0.10
2023-11-06T11:36:58.765Z,0.40
2023-11-06T11:40:03.230Z,0.08
2023-11-06T11:43:24.303Z,0.30
2023-11-06T11:46:36.615Z,0.35
2023-11-06T11:49:48.880Z,1.70
2023-11-06T11:52:51.613Z,0.95
2023-11-06T11:55:53.980Z,0.40
2023-11-06T11:58:58.007Z,1.03
2023-11-06T12:02:01.590Z,0.10
2023-11-06T12:05:16.304Z,0.45
2023-11-06T12:08:23.388Z,0.88
2023-11-06T12:11:26.725Z,0.28
2023-11-06T12:14:31.815Z,1.25
2023-11-06T12:17:38.970Z,1.50
2023-11-06T12:20:41.600Z,0.20
2023-11-06T12:23:44.095Z,0.40
2023-11-06T12:26:53.817Z,1.20
2023-11-06T12:30:06.021Z,0.83
2023-11-06T12:33:25.042Z,1.85
2023-11-06T12:36:30.509Z,2.15
2023-11-06T12:39:35.310Z,1.75
2023-11-06T12:42:38.620Z,0.32
2023-11-06T12:45:43.252Z,0.88
2023-11-06T12:48:47.620Z,1.73
2023-11-06T12:51:52.238Z,0.20
2023-11-06T12:54:54.752Z,0.38
2023-11-06T12:58:10.825Z,3.45
2023-11-06T13:01:23.071Z,0.40
2023-11-06T13:04:28.051Z,1.23
2023-11-06T13:07:31.559Z,0.70
2023-11-06T13:10:34.027Z,0.10
2023-11-06T13:13:36.764Z,0.60
2023-11-06T13:16:39.592Z,0.47
2023-11-06T13:19:43.745Z,0.70
2023-11-06T13:22:46.288Z,0.20
2023-11-06T13:25:49.186Z,1.88
2023-11-06T13:28:53.593Z,0.35
2023-11-06T13:31:56.451Z,0.30
2023-11-06T13:34:58.847Z,0.47
2023-11-06T13:38:02.086Z,0.45
2023-11-06T13:41:10.308Z,2.42
2023-11-06T13:44:13.777Z,0.60
2023-11-06T13:47:16.288Z,2.17
2023-11-06T13:50:28.913Z,0.03
2023-11-06T13:53:34.074Z,0.10
2023-11-06T13:56:39.555Z,0.55
2023-11-06T13:59:44.932Z,0.43
2023-11-06T14:02:47.493Z,0.30
2023-11-06T14:05:51.140Z,1.40
2023-11-06T14:08:56.849Z,3.70
2023-11-06T14:11:59.277Z,0.10
2023-11-06T14:15:01.705Z,4.32
2023-11-06T14:18:04.978Z,1.48
2023-11-06T14:21:09.159Z,0.30
2023-11-06T14:24:11.654Z,0.60
2023-11-06T14:27:14.554Z,0.82
2023-11-06T14:30:18.464Z,0.20
2023-11-06T14:33:22.730Z,1.50
2023-11-06T14:36:25.279Z,0.30
2023-11-06T14:39:27.919Z,0.57
2023-11-06T14:42:30.300Z,0.40
2023-11-06T14:45:34.303Z,1.98
2023-11-06T14:48:40.291Z,0.30
2023-11-06T14:51:46.116Z,0.20
2023-11-06T14:54:49.408Z,0.97
2023-11-06T14:57:53.169Z,1.10
2023-11-06T15:00:55.834Z,8.13
2023-11-06T15:03:58.433Z,9.73
2023-11-06T15:07:01.040Z,2.58
2023-11-06T15:10:04.834Z,1.10
2023-11-06T15:13:08.084Z,3.40
2023-11-06T15:16:10.505Z,2.30
2023-11-06T15:19:15.840Z,4.40
2023-11-06T15:22:18.345Z,1.23
2023-11-06T15:25:21.485Z,2.03
2023-11-06T15:28:26.009Z,5.03
2023-11-06T15:31:29.724Z,2.03
2023-11-06T15:34:32.131Z,1.77
2023-11-06T15:37:35.067Z,2.15
2023-11-06T15:40:37.477Z,1.33
2023-11-06T15:43:42.572Z,6.30
2023-11-06T15:46:49.003Z,3.63
2023-11-06T15:49:55.017Z,6.18
2023-11-06T15:52:59.093Z,3.00
2023-11-06T15:56:01.522Z,3.07
2023-11-06T15:59:04.208Z,3.00
2023-11-06T16:02:06.892Z,5.10
2023-11-06T16:05:09.847Z,9.07
2023-11-06T16:08:12.474Z,4.13
2023-11-06T16:11:16.043Z,3.15
2023-11-06T16:14:18.821Z,3.78
2023-11-06T16:17:25.802Z,5.57
2023-11-06T16:20:28.622Z,4.60
2023-11-06T16:23:31.148Z,5.38
2023-11-06T16:26:37.298Z,5.27
2023-11-06T16:29:39.876Z,7.68
2023-11-06T16:32:42.397Z,3.85
2023-11-06T16:35:44.852Z,9.23
2023-11-06T16:38:47.350Z,5.53
2023-11-06T16:41:49.939Z,8.55
2023-11-06T16:44:52.510Z,12.05
2023-11-06T16:47:55.615Z,8.18
2023-11-06T16:50:58.193Z,3.42
2023-11-06T16:54:01.039Z,2.63
2023-11-06T16:57:04.598Z,3.30
2023-11-06T17:00:08.584Z,3.25
2023-11-06T17:03:11.267Z,1.98
2023-11-06T17:06:14.784Z,1.87
2023-11-06T17:09:17.397Z,3.72
2023-11-06T17:12:20.876Z,10.93
2023-11-06T17:15:23.274Z,3.92
2023-11-06T17:18:25.895Z,8.50
2023-11-06T17:21:28.403Z,4.30
2023-11-06T17:24:32.767Z,6.78
2023-11-06T17:27:35.261Z,2.33
2023-11-06T17:30:37.775Z,1.48
2023-11-06T17:33:40.828Z,4.53
2023-11-06T17:36:43.565Z,2.67
2023-11-06T17:39:46.257Z,2.47
2023-11-06T17:42:48.643Z,0.88
2023-11-06T17:45:54.180Z,5.70
2023-11-06T17:48:56.922Z,4.47
2023-11-06T17:51:59.430Z,7.60
2023-11-06T17:55:01.951Z,9.77
2023-11-06T17:58:05.016Z,5.47
2023-11-06T18:01:09.081Z,1.95
2023-11-06T18:04:12.854Z,4.32
2023-11-06T18:07:15.454Z,1.67
2023-11-06T18:10:18.716Z,2.22
2023-11-06T18:13:21.144Z,2.33
2023-11-06T18:16:23.632Z,1.60
2023-11-06T18:19:28.334Z,4.75
2023-11-06T18:22:31.390Z,2.05
2023-11-06T18:25:33.816Z,1.83
2023-11-06T18:28:36.881Z,2.43
2023-11-06T18:31:39.515Z,3.67
2023-11-06T18:34:46.592Z,4.07
2023-11-06T18:37:50.268Z,3.33
2023-11-06T18:40:52.904Z,4.75
2023-11-06T18:43:55.356Z,5.20
2023-11-06T18:46:58.389Z,3.78
2023-11-06T18:50:01.085Z,2.38
2023-11-06T18:53:04.832Z,4.38
2023-11-06T18:56:08.112Z,6.90
2023-11-06T18:59:10.888Z,6.50
2023-11-06T19:02:14.471Z,4.18
2023-11-06T19:05:17.309Z,7.53
2023-11-06T19:08:19.930Z,5.60
2023-11-06T19:11:24.363Z,7.13
2023-11-06T19:14:28.147Z,4.53
2023-11-06T19:17:31.566Z,3.13
2023-11-06T19:20:34.295Z,5.30
2023-11-06T19:23:37.538Z,4.38
2023-11-06T19:26:40.188Z,5.80
2023-11-06T19:29:43.835Z,8.97
2023-11-06T19:32:46.713Z,14.38
2023-11-06T19:35:49.311Z,15.20
2023-11-06T19:38:51.882Z,19.67
2023-11-06T19:41:55.185Z,9.55
2023-11-06T19:44:57.823Z,7.90
2023-11-06T19:48:00.591Z,6.03
2023-11-06T19:51:03.108Z,6.20
2023-11-06T19:54:06.156Z,5.03
2023-11-06T19:57:10.630Z,6.22
2023-11-06T20:00:16.549Z,10.47
2023-11-06T20:03:19.853Z,16.65
2023-11-06T20:06:22.845Z,27.92
2023-11-06T20:09:26.740Z,32.87
2023-11-06T20:12:29.187Z,16.70
2023-11-06T20:15:34.120Z,12.25
2023-11-06T20:18:36.735Z,8.55
2023-11-06T20:21:40.476Z,6.75
2023-11-06T20:24:45.037Z,2.20
2023-11-06T20:27:47.525Z,8.88
2023-11-06T20:30:50.328Z,8.20
2023-11-06T20:33:54.040Z,3.72
2023-11-06T20:36:56.733Z,6.35
2023-11-06T20:39:59.166Z,3.30
2023-11-06T20:43:01.604Z,2.90
2023-11-06T20:46:04.893Z,7.60
2023-11-06T20:49:07.535Z,6.32
2023-11-06T20:52:10.064Z,2.97
2023-11-06T20:55:13.690Z,2.00
2023-11-06T20:58:16.163Z,7.65
2023-11-06T21:01:18.580Z,5.57
2023-11-06T21:04:21.200Z,4.85
2023-11-06T21:07:24.345Z,2.28
2023-11-06T21:10:26.886Z,4.27
2023-11-06T21:13:29.320Z,5.57
2023-11-06T21:16:35.067Z,5.50
2023-11-06T21:19:37.690Z,3.10
2023-11-06T21:22:42.202Z,3.17
2023-11-06T21:25:44.758Z,2.90
2023-11-06T21:28:47.256Z,3.65
2023-11-06T21:31:49.676Z,5.20
2023-11-06T21:34:54.062Z,5.60
2023-11-06T21:37:56.518Z,14.52
2023-11-06T21:40:59.086Z,10.07
2023-11-06T21:44:01.809Z,6.50
2023-11-06T21:47:04.444Z,8.98
2023-11-06T21:50:07.463Z,3.90
2023-11-06T21:53:11.317Z,10.85
2023-11-06T21:56:13.788Z,5.95
2023-11-06T21:59:16.129Z,6.60
2023-11-06T22:02:18.669Z,6.20
2023-11-06T22:05:22.480Z,5.85
2023-11-06T22:08:24.995Z,5.38
2023-11-06T22:11:27.504Z,4.20
2023-11-06T22:14:29.988Z,5.95
2023-11-06T22:17:35.602Z,5.03
2023-11-06T22:20:38.173Z,3.88
2023-11-06T22:23:40.682Z,5.78
2023-11-06T22:26:45.021Z,5.55
2023-11-06T22:29:47.600Z,2.83
2023-11-06T22:32:50.129Z,4.23
2023-11-06T22:35:52.707Z,8.38
2023-11-06T22:38:55.112Z,7.00
2023-11-06T22:41:57.805Z,6.43
2023-11-06T22:45:00.316Z,5.90
2023-11-06T22:48:04.017Z,7.70
2023-11-06T22:51:06.971Z,3.42
2023-11-06T22:54:09.453Z,4.55
2023-11-06T22:57:11.942Z,5.40
2023-11-06T23:00:23.498Z,3.47
2023-11-06T23:03:26.063Z,5.53
2023-11-06T23:06:28.581Z,4.88
2023-11-06T23:09:31.114Z,7.35
2023-11-06T23:12:33.587Z,5.03
2023-11-06T23:15:36.811Z,4.90
2023-11-06T23:18:39.614Z,7.93
2023-11-06T23:21:42.116Z,4.22
2023-11-06T23:24:46.415Z,5.03
2023-11-06T23:27:50.433Z,4.15
2023-11-06T23:30:52.876Z,3.17
2023-11-06T23:33:55.378Z,3.70
2023-11-06T23:36:57.956Z,5.13
2023-11-06T23:40:00.490Z,4.63
2023-11-06T23:43:04.086Z,3.30
2023-11-06T23:46:06.764Z,4.80
2023-11-06T23:49:10.030Z,4.50
2023-11-06T23:52:12.865Z,6.32
2023-11-06T23:55:15.278Z,4.50
2023-11-06T23:58:18.972Z,2.42
